createdAt,value
2023-04-07T00:01:46.888Z,8.17
2023-04-07T00:04:13.505Z,8.24
2023-04-07T00:06:40.587Z,8.54
2023-04-07T00:09:07.067Z,8.26
2023-04-07T00:11:33.502Z,8.26
2023-04-07T00:13:59.942Z,8.32
2023-04-07T00:16:26.524Z,8.50
2023-04-07T00:18:53.103Z,8.14
2023-04-07T00:21:19.541Z,8.24
2023-04-07T00:23:46.984Z,8.14
2023-04-07T00:26:13.662Z,8.15
2023-04-07T00:28:40.198Z,8.16
2023-04-07T00:31:06.623Z,8.25
2023-04-07T00:33:33.079Z,8.34
2023-04-07T00:35:59.558Z,8.14
2023-04-07T00:38:26.024Z,8.29
2023-04-07T00:41:00.357Z,8.15
2023-04-07T00:43:27.399Z,8.27
2023-04-07T00:45:54.311Z,8.31
2023-04-07T00:48:21.662Z,8.40
2023-04-07T00:50:48.225Z,8.46
2023-04-07T00:53:15.380Z,8.13
2023-04-07T00:55:41.994Z,8.02
2023-04-07T00:58:08.438Z,8.24
2023-04-07T01:00:49.605Z,8.13
2023-04-07T01:03:39.872Z,8.12
2023-04-07T01:06:08.422Z,8.14
2023-04-07T01:08:57.236Z,8.55
2023-04-07T01:11:26.669Z,8.12
2023-04-07T01:13:55.078Z,8.46
2023-04-07T01:16:30.577Z,8.12
2023-04-07T01:19:34.949Z,8.10
2023-04-07T01:22:06.760Z,8.25
2023-04-07T01:25:18.019Z,7.99
2023-04-07T01:27:53.525Z,8.47
2023-04-07T01:30:22.915Z,8.68
2023-04-07T01:32:53.147Z,8.73
2023-04-07T01:35:20.694Z,9.42
2023-04-07T01:37:50.444Z,8.65
2023-04-07T01:40:18.125Z,9.23
2023-04-07T01:42:45.995Z,9.05
2023-04-07T01:45:13.329Z,8.46
2023-04-07T01:47:40.418Z,8.46
2023-04-07T01:50:09.331Z,8.75
2023-04-07T01:52:37.173Z,8.96
2023-04-07T01:55:07.527Z,9.02
2023-04-07T01:57:33.983Z,8.85
2023-04-07T02:00:00.598Z,8.79
2023-04-07T02:02:27.746Z,8.64
2023-04-07T02:05:03.088Z,8.65
2023-04-07T02:07:39.562Z,8.18
2023-04-07T02:10:08.437Z,8.35
2023-04-07T02:12:38.060Z,8.04
2023-04-07T02:15:06.637Z,7.63
2023-04-07T02:17:35.851Z,7.37
2023-04-07T02:20:04.160Z,7.30
2023-04-07T02:22:31.864Z,6.85
2023-04-07T02:24:58.382Z,6.85
2023-04-07T02:27:24.809Z,7.05
2023-04-07T02:29:51.377Z,6.87
2023-04-07T02:32:17.923Z,6.88
2023-04-07T02:34:44.327Z,7.25
2023-04-07T02:37:10.804Z,7.60
2023-04-07T02:39:37.279Z,7.20
2023-04-07T02:42:03.830Z,7.24
2023-04-07T02:44:30.326Z,7.36
2023-04-07T02:46:56.751Z,7.37
2023-04-07T02:49:23.140Z,7.65
2023-04-07T02:51:49.561Z,7.49
2023-04-07T02:54:16.086Z,7.65
2023-04-07T02:56:42.500Z,7.35
2023-04-07T02:59:08.899Z,7.56
2023-04-07T03:01:36.327Z,7.57
2023-04-07T03:04:03.140Z,7.46
2023-04-07T03:06:29.688Z,7.78
2023-04-07T03:08:56.773Z,7.56
2023-04-07T03:11:23.191Z,8.01
2023-04-07T03:13:49.590Z,7.67
2023-04-07T03:16:16.066Z,7.57
2023-04-07T03:18:42.509Z,7.55
2023-04-07T03:21:08.980Z,7.94
2023-04-07T03:23:35.501Z,7.79
2023-04-07T03:26:02.011Z,7.81
2023-04-07T03:28:28.430Z,7.86
2023-04-07T03:30:54.945Z,8.12
2023-04-07T03:33:21.498Z,8.27
2023-04-07T03:35:47.915Z,8.10
2023-04-07T03:38:14.363Z,7.34
2023-04-07T03:40:40.903Z,7.62
2023-04-07T03:43:12.455Z,7.82
2023-04-07T03:45:38.965Z,8.00
2023-04-07T03:48:05.547Z,8.10
2023-04-07T03:50:31.963Z,7.98
2023-04-07T03:52:58.422Z,7.67
2023-04-07T03:55:25.382Z,7.82
2023-04-07T03:57:51.805Z,8.14
2023-04-07T04:00:18.366Z,8.06
2023-04-07T04:02:44.925Z,7.80
2023-04-07T04:05:11.592Z,7.60
2023-04-07T04:07:38.090Z,7.61
2023-04-07T04:10:04.909Z,7.41
2023-04-07T04:12:31.389Z,7.24
2023-04-07T04:14:57.949Z,7.50
2023-04-07T04:17:25.512Z,7.57
2023-04-07T04:19:51.985Z,6.88
2023-04-07T04:22:18.450Z,7.41
2023-04-07T04:24:44.872Z,7.61
2023-04-07T04:27:11.334Z,7.61
2023-04-07T04:29:38.034Z,7.44
2023-04-07T04:32:04.638Z,7.73
2023-04-07T04:34:31.369Z,7.58
2023-04-07T04:36:57.878Z,7.79
2023-04-07T04:39:24.348Z,7.41
2023-04-07T04:41:50.958Z,7.38
2023-04-07T04:44:17.343Z,7.53
2023-04-07T04:46:43.796Z,7.74
2023-04-07T04:49:10.216Z,7.36
2023-04-07T04:51:36.693Z,7.60
2023-04-07T04:54:04.056Z,7.38
2023-04-07T04:56:30.689Z,7.59
2023-04-07T04:58:57.120Z,7.49
2023-04-07T05:01:23.524Z,7.61
2023-04-07T05:03:50.387Z,7.39
2023-04-07T05:06:17.048Z,7.08
2023-04-07T05:08:43.437Z,7.37
2023-04-07T05:11:09.812Z,7.17
2023-04-07T05:13:36.361Z,6.70
2023-04-07T05:16:02.813Z,7.22
2023-04-07T05:18:29.271Z,7.10
2023-04-07T05:20:55.662Z,6.88
2023-04-07T05:23:22.070Z,6.80
2023-04-07T05:25:48.483Z,7.33
2023-04-07T05:28:14.892Z,7.28
2023-04-07T05:30:41.299Z,7.02
2023-04-07T05:33:07.808Z,7.05
2023-04-07T05:35:34.266Z,7.34
2023-04-07T05:38:00.728Z,7.68
2023-04-07T05:40:27.145Z,7.03
2023-04-07T05:42:53.546Z,6.99
2023-04-07T05:45:20.142Z,7.35
2023-04-07T05:47:49.944Z,7.59
2023-04-07T05:50:17.470Z,7.44
2023-04-07T05:52:43.947Z,7.70
2023-04-07T05:55:10.748Z,7.48
2023-04-07T05:57:37.185Z,7.24
2023-04-07T06:00:04.638Z,7.84
2023-04-07T06:02:31.212Z,7.66
2023-04-07T06:04:57.789Z,7.85
2023-04-07T06:07:24.198Z,7.78
2023-04-07T06:09:50.863Z,7.92
2023-04-07T06:12:17.372Z,7.73
2023-04-07T06:14:43.871Z,7.75
2023-04-07T06:17:10.375Z,7.27
2023-04-07T06:19:36.818Z,7.51
2023-04-07T06:22:03.252Z,7.92
2023-04-07T06:24:29.681Z,7.77
2023-04-07T06:26:56.873Z,8.16
2023-04-07T06:29:23.428Z,8.73
2023-04-07T06:31:49.891Z,8.79
2023-04-07T06:34:16.654Z,9.11
2023-04-07T06:36:43.176Z,9.54
2023-04-07T06:39:09.707Z,10.37
2023-04-07T06:41:36.663Z,10.22
2023-04-07T06:44:03.073Z,9.84
2023-04-07T06:46:29.588Z,10.16
2023-04-07T06:48:56.127Z,10.75
2023-04-07T06:51:22.618Z,11.15
2023-04-07T06:53:49.390Z,10.44
2023-04-07T06:56:16.127Z,10.65
2023-04-07T06:58:42.598Z,10.37
2023-04-07T07:01:09.059Z,10.48
2023-04-07T07:03:35.677Z,11.05
2023-04-07T07:06:03.726Z,10.54
2023-04-07T07:08:30.814Z,10.90
2023-04-07T07:10:57.624Z,10.89
2023-04-07T07:13:29.049Z,11.13
2023-04-07T07:15:55.708Z,11.70
2023-04-07T07:18:22.299Z,12.03
2023-04-07T07:20:48.832Z,11.37
2023-04-07T07:23:15.379Z,12.65
2023-04-07T07:25:42.020Z,12.35
2023-04-07T07:28:09.570Z,11.98
2023-04-07T07:30:36.384Z,12.34
2023-04-07T07:33:02.869Z,12.11
2023-04-07T07:35:29.553Z,11.50
2023-04-07T07:37:56.212Z,11.83
2023-04-07T07:40:22.749Z,11.92
2023-04-07T07:42:49.252Z,12.28
2023-04-07T07:45:17.500Z,12.41
2023-04-07T07:47:43.991Z,11.73
2023-04-07T07:50:10.692Z,12.57
2023-04-07T07:52:37.425Z,13.51
2023-04-07T07:55:04.154Z,12.50
2023-04-07T07:57:31.825Z,13.42
2023-04-07T07:59:58.324Z,13.15
2023-04-07T08:02:30.733Z,13.65
2023-04-07T08:04:57.938Z,13.92
2023-04-07T08:07:24.741Z,13.10
2023-04-07T08:09:51.367Z,14.17
2023-04-07T08:12:17.766Z,13.40
2023-04-07T08:14:44.409Z,14.72
2023-04-07T08:17:13.442Z,15.88
2023-04-07T08:19:39.940Z,15.76
2023-04-07T08:22:06.486Z,15.10
2023-04-07T08:24:33.037Z,14.58
2023-04-07T08:26:59.661Z,14.37
2023-04-07T08:29:26.244Z,14.08
2023-04-07T08:31:52.817Z,14.00
2023-04-07T08:34:21.098Z,15.37
2023-04-07T08:36:47.740Z,15.32
2023-04-07T08:39:14.137Z,14.35
2023-04-07T08:41:42.348Z,14.09
2023-04-07T08:44:10.510Z,14.64
2023-04-07T08:46:40.970Z,13.37
2023-04-07T08:49:13.820Z,14.29
2023-04-07T08:51:47.404Z,14.86
2023-04-07T08:54:18.664Z,13.82
2023-04-07T08:56:45.492Z,14.29
2023-04-07T08:59:14.294Z,13.92
2023-04-07T09:01:41.853Z,13.93
2023-04-07T09:04:10.212Z,13.15
2023-04-07T09:06:38.002Z,14.16
2023-04-07T09:09:08.049Z,13.64
2023-04-07T09:11:37.480Z,12.85
2023-04-07T09:14:04.173Z,13.45
2023-04-07T09:16:33.585Z,13.55
2023-04-07T09:19:00.164Z,13.39
2023-04-07T09:21:29.890Z,14.29
2023-04-07T09:23:56.311Z,13.14
2023-04-07T09:26:28.200Z,13.39
2023-04-07T09:28:58.478Z,13.98
2023-04-07T09:31:48.187Z,13.05
2023-04-07T09:34:36.224Z,13.22
2023-04-07T09:37:04.635Z,13.83
2023-04-07T09:39:31.733Z,13.73
2023-04-07T09:41:58.869Z,13.98
2023-04-07T09:44:26.495Z,14.04
2023-04-07T09:46:56.299Z,13.65
2023-04-07T09:49:24.194Z,13.69
2023-04-07T09:51:57.239Z,14.31
2023-04-07T09:54:32.957Z,13.59
2023-04-07T09:57:01.953Z,13.52
2023-04-07T09:59:29.758Z,12.97
2023-04-07T10:01:56.965Z,14.70
2023-04-07T10:04:25.068Z,13.94
2023-04-07T10:06:54.315Z,14.43
2023-04-07T10:09:25.241Z,13.58
2023-04-07T10:11:52.958Z,14.41
2023-04-07T10:14:21.505Z,14.39
2023-04-07T10:16:48.882Z,14.61
2023-04-07T10:19:16.311Z,13.35
2023-04-07T10:21:43.954Z,11.92
2023-04-07T10:24:42.408Z,14.21
2023-04-07T10:27:14.442Z,14.63
2023-04-07T10:29:43.485Z,14.96
2023-04-07T10:32:10.096Z,14.10
2023-04-07T10:34:54.711Z,14.68
2023-04-07T10:37:22.642Z,14.76
2023-04-07T10:39:51.273Z,14.20
2023-04-07T10:42:39.410Z,14.09
2023-04-07T10:45:10.498Z,14.50
2023-04-07T10:48:02.949Z,14.66
2023-04-07T10:50:29.570Z,15.19
2023-04-07T10:53:16.337Z,14.95
2023-04-07T10:55:46.597Z,12.99
2023-04-07T10:58:14.008Z,14.16
2023-04-07T11:00:40.598Z,13.26
2023-04-07T11:03:15.118Z,14.27
2023-04-07T11:05:42.462Z,14.47
2023-04-07T11:08:08.929Z,13.18
2023-04-07T11:10:36.061Z,14.08
2023-04-07T11:13:07.770Z,14.49
2023-04-07T11:15:37.885Z,14.82
2023-04-07T11:18:23.756Z,14.94
2023-04-07T11:20:54.398Z,14.21
2023-04-07T11:23:23.878Z,13.85
2023-04-07T11:25:52.360Z,14.33
2023-04-07T11:28:19.510Z,14.42
2023-04-07T11:30:52.092Z,13.91
2023-04-07T11:33:21.356Z,13.50
2023-04-07T11:35:56.187Z,13.99
2023-04-07T11:38:27.897Z,14.87
2023-04-07T11:40:56.341Z,14.78
2023-04-07T11:43:26.455Z,14.19
2023-04-07T11:46:12.310Z,14.32
2023-04-07T11:48:41.085Z,12.46
2023-04-07T11:51:16.393Z,14.16
2023-04-07T11:53:42.898Z,14.75
2023-04-07T11:56:16.397Z,14.68
2023-04-07T11:58:48.880Z,14.38
2023-04-07T12:01:15.767Z,14.94
2023-04-07T12:03:56.108Z,15.44
2023-04-07T12:06:38.526Z,15.17
2023-04-07T12:09:05.798Z,15.34
2023-04-07T12:11:33.040Z,13.59
2023-04-07T12:13:59.573Z,14.15
2023-04-07T12:16:26.271Z,13.96
2023-04-07T12:18:52.966Z,14.84
2023-04-07T12:21:19.986Z,14.58
2023-04-07T12:23:47.681Z,14.68
2023-04-07T12:26:14.299Z,14.95
2023-04-07T12:28:40.799Z,15.10
2023-04-07T12:31:07.233Z,14.80
2023-04-07T12:33:33.635Z,14.71
2023-04-07T12:36:03.724Z,15.38
2023-04-07T12:38:30.233Z,15.61
2023-04-07T12:41:03.085Z,15.26
2023-04-07T12:43:30.991Z,14.77
2023-04-07T12:45:57.642Z,15.68
2023-04-07T12:48:27.320Z,15.25
2023-04-07T12:50:53.824Z,14.69
2023-04-07T12:53:20.523Z,15.54
2023-04-07T12:55:50.356Z,14.61
2023-04-07T12:58:17.567Z,14.41
2023-04-07T13:00:44.063Z,14.84
2023-04-07T13:03:10.553Z,14.56
2023-04-07T13:05:37.064Z,14.67
2023-04-07T13:08:04.242Z,15.25
2023-04-07T13:10:30.793Z,15.40
2023-04-07T13:12:57.219Z,15.01
2023-04-07T13:15:24.558Z,14.88
2023-04-07T13:17:51.234Z,15.27
2023-04-07T13:20:20.616Z,15.13
2023-04-07T13:22:50.647Z,15.50
2023-04-07T13:25:22.489Z,15.08
2023-04-07T13:27:48.917Z,14.54
2023-04-07T13:30:16.023Z,14.92
2023-04-07T13:32:42.503Z,15.04
2023-04-07T13:35:09.161Z,14.89
2023-04-07T13:37:35.956Z,14.85
2023-04-07T13:40:02.406Z,14.88
2023-04-07T13:42:28.821Z,15.04
2023-04-07T13:44:55.326Z,15.11
2023-04-07T13:47:22.535Z,13.65
2023-04-07T13:49:49.753Z,15.17
2023-04-07T13:52:16.587Z,15.24
2023-04-07T13:54:43.272Z,15.18
2023-04-07T13:57:09.813Z,15.03
2023-04-07T13:59:36.360Z,14.50
2023-04-07T14:02:02.872Z,14.38
2023-04-07T14:04:29.384Z,14.46
2023-04-07T14:06:56.189Z,14.35
2023-04-07T14:09:22.659Z,14.76
2023-04-07T14:11:49.200Z,14.79
2023-04-07T14:14:15.608Z,14.86
2023-04-07T14:16:41.994Z,14.84
2023-04-07T14:19:08.401Z,14.62
2023-04-07T14:21:34.811Z,15.08
2023-04-07T14:24:01.242Z,13.92
2023-04-07T14:26:27.697Z,15.22
2023-04-07T14:28:54.184Z,13.94
2023-04-07T14:31:20.925Z,14.23
2023-04-07T14:33:47.659Z,14.30
2023-04-07T14:36:16.623Z,14.78
2023-04-07T14:38:43.742Z,14.79
2023-04-07T14:41:10.712Z,15.04
2023-04-07T14:43:37.840Z,14.45
2023-04-07T14:46:04.310Z,13.76
2023-04-07T14:48:30.864Z,14.55
2023-04-07T14:51:08.123Z,13.79
2023-04-07T14:53:35.585Z,13.46
2023-04-07T14:56:05.152Z,14.47
2023-04-07T14:58:32.181Z,15.04
2023-04-07T15:00:58.606Z,13.70
2023-04-07T15:03:25.216Z,13.40
2023-04-07T15:05:51.819Z,15.04
2023-04-07T15:08:18.255Z,14.61
2023-04-07T15:10:44.657Z,15.33
2023-04-07T15:13:11.232Z,14.20
2023-04-07T15:15:37.709Z,14.03
2023-04-07T15:18:04.375Z,14.27
2023-04-07T15:20:30.960Z,14.24
2023-04-07T15:23:00.373Z,14.34
2023-04-07T15:25:27.019Z,15.11
2023-04-07T15:27:53.464Z,14.40
2023-04-07T15:30:19.981Z,15.17
2023-04-07T15:33:00.279Z,15.21
2023-04-07T15:35:27.506Z,14.87
2023-04-07T15:37:54.022Z,13.93
2023-04-07T15:40:20.968Z,14.81
2023-04-07T15:42:47.430Z,14.44
2023-04-07T15:45:13.996Z,14.21
2023-04-07T15:47:40.612Z,14.04
2023-04-07T15:50:08.076Z,14.10
2023-04-07T15:52:34.498Z,14.72
2023-04-07T15:55:00.978Z,13.43
2023-04-07T15:57:27.367Z,14.55
2023-04-07T15:59:53.765Z,13.74
2023-04-07T16:02:20.411Z,14.55
2023-04-07T16:04:48.082Z,13.71
2023-04-07T16:07:14.798Z,14.05
2023-04-07T16:09:41.282Z,14.02
2023-04-07T16:12:07.693Z,13.59
2023-04-07T16:14:34.181Z,12.67
2023-04-07T16:17:00.774Z,12.62
2023-04-07T16:19:27.719Z,12.77
2023-04-07T16:21:54.692Z,13.46
2023-04-07T16:24:21.808Z,13.58
2023-04-07T16:26:50.434Z,12.08
2023-04-07T16:29:18.297Z,13.25
2023-04-07T16:31:45.153Z,12.91
2023-04-07T16:34:12.318Z,11.94
2023-04-07T16:36:39.190Z,12.42
2023-04-07T16:39:05.670Z,12.30
2023-04-07T16:41:32.261Z,12.14
2023-04-07T16:43:58.908Z,13.11
2023-04-07T16:46:29.819Z,13.23
2023-04-07T16:48:56.425Z,13.12
2023-04-07T16:51:24.052Z,13.02
2023-04-07T16:53:50.878Z,12.23
2023-04-07T16:56:21.912Z,12.59
2023-04-07T16:58:49.492Z,11.72
2023-04-07T17:01:16.386Z,13.12
2023-04-07T17:03:43.010Z,13.55
2023-04-07T17:06:09.754Z,11.83
2023-04-07T17:08:40.661Z,11.94
2023-04-07T17:11:13.231Z,12.91
2023-04-07T17:13:40.286Z,11.24
2023-04-07T17:16:07.227Z,11.08
2023-04-07T17:18:33.896Z,11.17
2023-04-07T17:21:00.623Z,11.59
2023-04-07T17:23:28.340Z,11.16
2023-04-07T17:25:54.940Z,11.41
2023-04-07T17:28:21.419Z,11.74
2023-04-07T17:30:47.925Z,12.41
2023-04-07T17:33:14.373Z,11.53
2023-04-07T17:35:40.809Z,12.84
2023-04-07T17:38:07.318Z,11.80
2023-04-07T17:40:34.556Z,12.74
2023-04-07T17:43:01.029Z,12.01
2023-04-07T17:45:27.619Z,12.18
2023-04-07T17:47:54.845Z,11.03
2023-04-07T17:50:21.355Z,11.02
2023-04-07T17:52:47.770Z,10.95
2023-04-07T17:55:14.246Z,10.94
2023-04-07T17:57:41.516Z,11.43
2023-04-07T18:00:08.999Z,10.99
2023-04-07T18:02:35.955Z,11.69
2023-04-07T18:05:03.200Z,11.73
2023-04-07T18:07:29.710Z,11.94
2023-04-07T18:09:56.962Z,10.56
2023-04-07T18:12:23.954Z,10.53
2023-04-07T18:14:50.681Z,10.42
2023-04-07T18:17:17.069Z,10.87
2023-04-07T18:19:43.552Z,10.09
2023-04-07T18:22:10.237Z,10.81
2023-04-07T18:24:37.059Z,11.02
2023-04-07T18:27:04.026Z,10.48
2023-04-07T18:29:33.360Z,9.72
2023-04-07T18:31:59.752Z,10.61
2023-04-07T18:34:26.263Z,9.80
2023-04-07T18:36:53.747Z,10.37
2023-04-07T18:39:20.214Z,9.71
2023-04-07T18:41:48.216Z,10.58
2023-04-07T18:44:15.105Z,9.83
2023-04-07T18:46:41.619Z,10.47
2023-04-07T18:49:08.370Z,9.79
2023-04-07T18:51:34.905Z,10.21
2023-04-07T18:54:01.350Z,10.20
2023-04-07T18:56:28.362Z,9.26
2023-04-07T18:58:54.906Z,8.91
2023-04-07T19:01:21.685Z,9.06
2023-04-07T19:03:48.637Z,9.05
2023-04-07T19:06:16.435Z,9.68
2023-04-07T19:08:43.159Z,9.00
2023-04-07T19:11:10.198Z,8.84
2023-04-07T19:13:36.702Z,8.61
2023-04-07T19:16:03.640Z,9.15
2023-04-07T19:18:31.739Z,8.86
2023-04-07T19:20:58.296Z,8.99
2023-04-07T19:23:25.267Z,8.79
2023-04-07T19:25:51.731Z,8.95
2023-04-07T19:28:18.409Z,8.35
2023-04-07T19:30:44.851Z,8.63
2023-04-07T19:33:11.806Z,8.17
2023-04-07T19:35:41.286Z,8.53
2023-04-07T19:38:07.824Z,8.40
2023-04-07T19:40:34.638Z,8.75
2023-04-07T19:43:01.194Z,9.12
2023-04-07T19:45:27.840Z,8.17
2023-04-07T19:47:54.594Z,8.60
2023-04-07T19:50:21.227Z,9.56
2023-04-07T19:52:47.664Z,8.82
2023-04-07T19:55:14.348Z,8.34
2023-04-07T19:57:41.114Z,8.55
2023-04-07T20:00:09.038Z,9.27
2023-04-07T20:02:36.608Z,8.16
2023-04-07T20:05:03.915Z,8.34
2023-04-07T20:07:31.819Z,8.30
2023-04-07T20:09:58.267Z,8.74
2023-04-07T20:12:24.817Z,9.29
2023-04-07T20:14:51.609Z,8.54
2023-04-07T20:17:18.043Z,8.41
2023-04-07T20:19:44.461Z,8.90
2023-04-07T20:22:11.417Z,7.91
2023-04-07T20:24:38.862Z,7.69
2023-04-07T20:27:05.705Z,8.15
2023-04-07T20:29:32.149Z,8.10
2023-04-07T20:31:58.584Z,8.67
2023-04-07T20:34:25.334Z,8.91
2023-04-07T20:36:51.871Z,8.22
2023-04-07T20:39:18.355Z,8.72
2023-04-07T20:41:45.502Z,7.94
2023-04-07T20:44:12.143Z,9.44
2023-04-07T20:46:38.682Z,9.23
2023-04-07T20:49:07.625Z,8.45
2023-04-07T20:51:36.693Z,9.15
2023-04-07T20:54:03.938Z,9.56
2023-04-07T20:56:30.427Z,8.50
2023-04-07T20:58:56.826Z,9.75
2023-04-07T21:01:23.443Z,9.22
2023-04-07T21:03:49.994Z,8.56
2023-04-07T21:06:16.460Z,8.56
2023-04-07T21:08:42.919Z,8.73
2023-04-07T21:11:09.334Z,8.05
2023-04-07T21:13:36.037Z,8.20
2023-04-07T21:16:04.770Z,8.56
2023-04-07T21:18:31.919Z,8.89
2023-04-07T21:20:59.568Z,7.90
2023-04-07T21:23:26.021Z,8.55
2023-04-07T21:25:52.460Z,7.78
2023-04-07T21:28:18.884Z,7.80
2023-04-07T21:30:45.474Z,8.94
2023-04-07T21:33:14.141Z,7.84
2023-04-07T21:35:40.765Z,7.90
2023-04-07T21:38:07.223Z,8.08
2023-04-07T21:40:33.672Z,7.62
2023-04-07T21:43:00.080Z,7.93
2023-04-07T21:45:26.626Z,7.30
2023-04-07T21:47:53.220Z,7.77
2023-04-07T21:50:19.671Z,7.45
2023-04-07T21:52:50.486Z,8.08
2023-04-07T21:55:20.701Z,8.30
2023-04-07T21:57:47.350Z,9.23
2023-04-07T22:00:14.448Z,8.36
2023-04-07T22:02:41.433Z,7.38
2023-04-07T22:05:08.497Z,7.48
2023-04-07T22:07:34.902Z,8.17
2023-04-07T22:10:01.666Z,7.63
2023-04-07T22:12:28.084Z,8.20
2023-04-07T22:14:54.490Z,8.53
2023-04-07T22:17:20.990Z,8.23
2023-04-07T22:19:47.434Z,7.42
2023-04-07T22:22:13.892Z,8.48
2023-04-07T22:24:40.341Z,7.66
2023-04-07T22:27:06.767Z,7.64
2023-04-07T22:29:33.185Z,7.72
2023-04-07T22:31:59.652Z,7.78
2023-04-07T22:34:26.157Z,8.20
2023-04-07T22:36:52.577Z,7.96
2023-04-07T22:39:19.023Z,8.79
2023-04-07T22:41:45.628Z,7.63
2023-04-07T22:44:12.123Z,8.00
2023-04-07T22:46:38.605Z,8.81
2023-04-07T22:49:05.313Z,7.87
2023-04-07T22:51:31.879Z,7.92
2023-04-07T22:53:58.368Z,8.82
2023-04-07T22:56:25.511Z,9.61
2023-04-07T22:58:52.171Z,7.99
2023-04-07T23:01:18.912Z,7.94
2023-04-07T23:03:45.519Z,8.44
2023-04-07T23:06:11.989Z,9.21
2023-04-07T23:08:38.485Z,9.06
2023-04-07T23:11:09.785Z,8.61
2023-04-07T23:13:36.240Z,9.39
2023-04-07T23:16:03.855Z,8.62
2023-04-07T23:18:31.472Z,8.39
2023-04-07T23:20:57.880Z,8.30
2023-04-07T23:23:24.302Z,8.30
2023-04-07T23:25:50.821Z,8.14
2023-04-07T23:28:17.253Z,8.07
2023-04-07T23:30:43.755Z,8.75
2023-04-07T23:33:10.191Z,7.52
2023-04-07T23:35:36.619Z,8.03
2023-04-07T23:38:03.268Z,8.61
2023-04-07T23:40:32.930Z,8.44
2023-04-07T23:42:59.354Z,8.70
2023-04-07T23:45:51.873Z,8.09
2023-04-07T23:48:21.103Z,8.27
2023-04-07T23:54:16.637Z,8.03
2023-04-07T23:56:43.773Z,8.80
